createdAt,value
2022-09-01T00:03:25.085Z,161.66784
2022-09-01T00:08:27.915Z,162.43972
2022-09-01T00:13:28.942Z,162.43972
2022-09-01T00:18:30.030Z,162.43972
2022-09-01T00:23:31.147Z,162.43972
2022-09-01T00:28:32.094Z,162.43972
2022-09-01T00:33:33.290Z,162.43972
2022-09-01T00:38:34.350Z,162.43972
2022-09-01T00:43:35.325Z,162.43972
2022-09-01T00:48:36.251Z,163.21708
2022-09-01T00:53:38.495Z,163.21708
2022-09-01T00:58:39.575Z,163.21708
2022-09-01T01:03:40.498Z,163.21708
2022-09-01T01:08:41.424Z,164.0
2022-09-01T01:13:42.347Z,163.21708
2022-09-01T01:18:43.332Z,163.21708
2022-09-01T01:23:44.341Z,163.21708
2022-09-01T01:28:45.289Z,163.21708
2022-09-01T01:33:46.270Z,163.21708
2022-09-01T01:38:47.245Z,163.21708
2022-09-01T01:43:48.292Z,163.21708
2022-09-01T01:48:49.242Z,163.21708
2022-09-01T01:53:50.115Z,164.0
2022-09-01T01:58:51.010Z,164.0
2022-09-01T02:03:51.987Z,164.0
2022-09-01T02:08:53.118Z,164.0
2022-09-01T02:13:54.076Z,164.0
2022-09-01T02:18:55.108Z,163.21708
2022-09-01T02:23:56.077Z,163.21708
2022-09-01T02:28:57.104Z,163.21708
2022-09-01T02:33:58.008Z,164.0
2022-09-01T02:38:59.147Z,164.0
2022-09-01T02:44:00.608Z,163.21708
2022-09-01T02:49:01.710Z,164.0
2022-09-01T02:54:02.833Z,164.0
2022-09-01T02:59:04.193Z,164.0
2022-09-01T03:04:05.195Z,164.0
2022-09-01T03:09:06.126Z,164.0
2022-09-01T03:14:07.045Z,164.78853
2022-09-01T03:19:07.964Z,164.0
2022-09-01T03:24:08.900Z,164.78853
2022-09-01T03:29:09.797Z,164.78853
2022-09-01T03:34:10.887Z,165.58273
2022-09-01T03:39:16.482Z,164.78853
2022-09-01T03:44:17.752Z,164.78853
2022-09-01T03:49:18.659Z,164.78853
2022-09-01T03:54:19.570Z,164.0
2022-09-01T03:59:20.433Z,164.0
2022-09-01T04:04:21.397Z,164.0
2022-09-01T04:09:22.354Z,164.0
2022-09-01T04:14:23.295Z,164.0
2022-09-01T04:19:24.186Z,164.78853
2022-09-01T04:24:25.082Z,164.78853
2022-09-01T04:29:26.012Z,164.78853
2022-09-01T04:34:26.908Z,165.58273
2022-09-01T04:39:27.925Z,165.58273
2022-09-01T04:44:28.876Z,165.58273
2022-09-01T04:49:29.815Z,165.58273
2022-09-01T04:54:30.751Z,165.58273
2022-09-01T04:59:31.673Z,164.78853
2022-09-01T05:04:32.586Z,164.78853
2022-09-01T05:09:33.581Z,164.0
2022-09-01T05:14:34.566Z,164.0
2022-09-01T05:19:35.567Z,163.21708
2022-09-01T05:24:41.273Z,164.0
2022-09-01T05:29:43.099Z,164.0
2022-09-01T05:34:44.048Z,163.21708
2022-09-01T05:39:45.045Z,163.21708
2022-09-01T05:44:45.956Z,163.21708
2022-09-01T05:49:46.890Z,163.21708
2022-09-01T05:54:47.784Z,163.21708
2022-09-01T05:59:51.034Z,162.43972
2022-09-01T06:04:51.947Z,162.43972
2022-09-01T06:09:52.920Z,161.66784
2022-09-01T06:14:53.844Z,161.66784
2022-09-01T06:19:54.805Z,161.66784
2022-09-01T06:25:01.023Z,161.66784
2022-09-01T06:30:03.056Z,161.66784
2022-09-01T06:35:03.982Z,160.90141
2022-09-01T06:40:06.271Z,160.14035
2022-09-01T06:45:07.204Z,160.14035
2022-09-01T06:50:08.361Z,160.14035
2022-09-01T06:55:09.403Z,159.38462
2022-09-01T07:00:10.365Z,160.14035
2022-09-01T07:05:59.827Z,157.88889
2022-09-01T07:48:06.780Z,154.9589
2022-09-01T07:53:07.794Z,156.41379
2022-09-01T07:58:08.651Z,155.68385
2022-09-01T08:03:09.785Z,155.68385
2022-09-01T08:08:19.334Z,156.41379
2022-09-01T08:13:21.795Z,156.41379
2022-09-01T08:18:23.350Z,154.9589
2022-09-01T08:23:24.276Z,152.10811
2022-09-01T08:28:26.940Z,149.33333
2022-09-01T08:33:28.180Z,149.33333
2022-09-01T08:38:29.225Z,148.65116
2022-09-01T08:43:30.248Z,147.97351
2022-09-01T08:49:23.762Z,148.65116
2022-09-01T08:54:29.414Z,150.02007
2022-09-01T08:59:31.087Z,148.65116
2022-09-01T09:04:32.072Z,147.30033
2022-09-01T09:09:34.115Z,146.63158
2022-09-01T09:14:35.227Z,152.81356
2022-09-01T09:19:36.220Z,156.41379
2022-09-01T09:24:39.573Z,157.88889
2022-09-01T09:29:41.378Z,152.81356
2022-09-01T09:34:42.338Z,150.02007
2022-09-01T09:39:43.287Z,149.33333
2022-09-01T09:44:44.250Z,144.65147
2022-09-01T09:49:48.761Z,137.71069
2022-09-01T09:54:49.970Z,131.23404
2022-09-01T09:59:59.193Z,136.5
2022-09-01T10:05:02.471Z,145.30719
2022-09-01T10:10:03.402Z,147.97351
2022-09-01T10:15:06.993Z,145.96721
2022-09-01T10:20:12.916Z,145.30719
2022-09-01T10:25:13.871Z,144.65147
2022-09-01T10:30:19.140Z,146.63158
2022-09-01T10:35:21.320Z,150.02007
2022-09-01T10:40:30.337Z,151.40741
2022-09-01T10:45:32.233Z,153.52381
2022-09-01T10:50:35.302Z,148.65116
2022-09-01T10:55:36.600Z,147.97351
2022-09-01T11:00:37.700Z,153.52381
2022-09-01T11:05:38.759Z,153.52381
2022-09-01T11:10:39.672Z,147.97351
2022-09-01T11:15:40.959Z,145.96721
2022-09-01T11:20:42.034Z,153.52381
2022-09-01T11:25:43.781Z,149.33333
2022-09-01T11:30:44.744Z,151.40741
2022-09-01T11:35:45.691Z,152.81356
2022-09-01T11:40:46.696Z,150.02007
2022-09-01T11:45:47.664Z,149.33333
2022-09-01T11:50:49.312Z,148.65116
2022-09-01T11:55:50.309Z,147.30033
2022-09-01T12:00:51.197Z,148.65116
2022-09-01T12:05:52.107Z,152.10811
2022-09-01T12:10:53.037Z,149.33333
2022-09-01T12:16:14.476Z,147.30033
2022-09-01T12:21:18.861Z,149.33333
2022-09-01T12:26:19.758Z,149.33333
2022-09-01T12:31:21.104Z,147.30033
2022-09-01T12:36:22.211Z,147.30033
2022-09-01T12:41:25.160Z,147.30033
2022-09-01T12:46:27.032Z,147.30033
2022-09-01T12:51:31.014Z,146.63158
2022-09-01T12:56:32.549Z,147.30033
2022-09-01T13:01:33.767Z,146.63158
2022-09-01T13:06:34.707Z,146.63158
2022-09-01T13:12:06.744Z,145.96721
2022-09-01T13:17:10.073Z,147.97351
2022-09-01T13:22:15.423Z,147.30033
2022-09-01T13:27:23.962Z,146.63158
2022-09-01T13:32:25.256Z,145.96721
2022-09-01T13:37:28.013Z,142.07074
2022-09-01T13:42:29.049Z,143.35275
2022-09-01T13:47:30.479Z,141.4359
2022-09-01T13:52:31.788Z,145.30719
2022-09-01T13:57:36.137Z,154.23891
2022-09-01T14:02:37.697Z,150.71141
2022-09-01T14:07:38.741Z,146.63158
2022-09-01T14:12:39.664Z,141.4359
2022-09-01T14:17:40.595Z,141.4359
2022-09-01T14:22:41.620Z,140.80511
2022-09-01T14:27:42.533Z,144.0
2022-09-01T14:32:45.498Z,142.70968
2022-09-01T14:37:46.528Z,142.07074
2022-09-01T14:42:47.541Z,144.65147
2022-09-01T14:47:48.620Z,138.32177
2022-09-01T14:52:49.552Z,140.17834
2022-09-01T14:57:50.460Z,139.55556
2022-09-01T15:02:51.414Z,138.93671
2022-09-01T15:07:52.365Z,140.80511
2022-09-01T15:12:53.321Z,141.4359
2022-09-01T15:17:54.332Z,140.17834
2022-09-01T15:22:55.553Z,139.55556
2022-09-01T15:27:56.503Z,141.4359
2022-09-01T15:32:57.401Z,142.07074
2022-09-01T15:37:58.412Z,142.07074
2022-09-01T15:42:59.355Z,142.70968
2022-09-01T15:48:00.262Z,145.96721
2022-09-01T15:53:01.494Z,144.65147
2022-09-01T15:58:02.691Z,144.65147
2022-09-01T16:03:03.639Z,145.30719
2022-09-01T16:08:04.624Z,145.30719
2022-09-01T16:13:05.552Z,147.97351
2022-09-01T16:18:06.458Z,147.30033
2022-09-01T16:23:07.387Z,150.71141
2022-09-01T16:28:08.318Z,151.40741
2022-09-01T16:33:09.265Z,150.71141
2022-09-01T16:38:10.177Z,154.23891
2022-09-01T16:43:12.359Z,151.40741
2022-09-01T16:48:13.549Z,153.52381
2022-09-01T16:53:14.495Z,151.40741
2022-09-01T16:58:18.751Z,152.81356
2022-09-01T17:03:22.936Z,152.10811
2022-09-01T17:08:35.216Z,151.40741
2022-09-01T17:13:36.159Z,151.40741
2022-09-01T17:18:37.102Z,152.10811
2022-09-01T17:23:38.040Z,152.10811
2022-09-01T17:28:38.994Z,152.81356
2022-09-01T17:33:39.897Z,152.10811
2022-09-01T17:38:40.778Z,153.52381
2022-09-01T17:43:41.879Z,153.52381
2022-09-01T17:48:42.784Z,153.52381
2022-09-01T17:53:43.757Z,154.23891
2022-09-01T17:58:44.802Z,153.52381
2022-09-01T18:03:45.834Z,153.52381
2022-09-01T18:08:46.764Z,154.23891
2022-09-01T18:13:53.230Z,153.52381
2022-09-01T18:18:54.819Z,154.23891
2022-09-01T18:23:55.783Z,154.23891
2022-09-01T18:28:56.688Z,154.23891
2022-09-01T18:33:58.082Z,154.23891
2022-09-01T18:38:59.051Z,154.23891
2022-09-01T18:44:00.063Z,154.9589
2022-09-01T18:49:01.305Z,154.9589
2022-09-01T18:54:02.798Z,155.68385
2022-09-01T18:59:03.732Z,155.68385
2022-09-01T19:04:09.477Z,155.68385
2022-09-01T19:09:11.310Z,156.41379
2022-09-01T19:14:12.340Z,156.41379
2022-09-01T19:19:13.310Z,156.41379
2022-09-01T19:24:14.287Z,156.41379
2022-09-01T19:29:15.215Z,156.41379
2022-09-01T19:34:16.126Z,156.41379
2022-09-01T19:39:17.031Z,157.14879
2022-09-01T19:44:17.933Z,157.88889
2022-09-01T19:49:18.858Z,157.88889
2022-09-01T19:54:19.777Z,157.88889
2022-09-01T19:59:20.750Z,158.63415
2022-09-01T20:04:21.778Z,158.63415
2022-09-01T20:09:22.711Z,158.63415
2022-09-01T20:14:23.645Z,158.63415
2022-09-01T20:19:24.573Z,158.63415
2022-09-01T20:24:25.555Z,158.63415
2022-09-01T20:29:26.525Z,159.38462
2022-09-01T20:34:27.444Z,159.38462
2022-09-01T20:39:28.434Z,158.63415
2022-09-01T20:44:29.457Z,158.63415
2022-09-01T20:49:30.442Z,157.88889
2022-09-01T20:54:31.690Z,157.88889
2022-09-01T20:59:32.578Z,158.63415
2022-09-01T21:04:33.458Z,158.63415
2022-09-01T21:09:34.449Z,158.63415
2022-09-01T21:14:35.455Z,159.38462
2022-09-01T21:19:36.638Z,159.38462
2022-09-01T21:24:37.603Z,159.38462
2022-09-01T21:29:38.621Z,159.38462
2022-09-01T21:34:39.520Z,159.38462
2022-09-01T21:39:40.445Z,159.38462
2022-09-01T21:44:41.433Z,159.38462
2022-09-01T21:49:42.333Z,160.14035
2022-09-01T21:54:43.260Z,159.38462
2022-09-01T21:59:44.176Z,160.14035
2022-09-01T22:04:45.166Z,160.14035
2022-09-01T22:09:48.477Z,160.14035
2022-09-01T22:14:49.383Z,160.14035
2022-09-01T22:19:50.383Z,160.14035
2022-09-01T22:24:51.345Z,160.90141
2022-09-01T22:29:52.251Z,160.90141
2022-09-01T22:34:53.209Z,160.90141
2022-09-01T22:39:54.113Z,160.90141
2022-09-01T22:44:55.040Z,160.90141
2022-09-01T22:49:56.016Z,160.90141
2022-09-01T22:54:56.975Z,160.90141
2022-09-01T22:59:58.063Z,161.66784
2022-09-01T23:04:59.003Z,161.66784
2022-09-01T23:09:59.982Z,161.66784
2022-09-01T23:15:00.992Z,161.66784
2022-09-01T23:20:02.385Z,161.66784
2022-09-01T23:25:03.398Z,161.66784
2022-09-01T23:30:04.359Z,161.66784
2022-09-01T23:35:05.301Z,162.43972
2022-09-01T23:40:06.254Z,162.43972
2022-09-01T23:45:07.217Z,161.66784
2022-09-01T23:50:08.247Z,162.43972
2022-09-01T23:55:09.185Z,161.66784
